Time;durP1;ratioP1;P1;durP2;ratioP2;P2;SDS_P1;SDS_P2;PMS_P1;PMS_P2;Temp;Humidity;BMP_temperature;BMP_pressure;BME280_temperature;BME280_humidity;BME280_pressure;Samples;Min_cycle;Max_cycle;Signal;HPM_P1;HPM_P2
2022/05/10 00:00:12;;;;;;;4.75;2.95;;;13.70;99.90;;;;;;5115893;28;20083;-73
2022/05/10 00:02:38;;;;;;;9.48;3.72;;;13.70;99.90;;;;;;5116154;28;20050;-74
2022/05/10 00:05:05;;;;;;;11.10;3.00;;;13.60;99.90;;;;;;5116108;28;20043;-76
2022/05/10 00:07:32;;;;;;;;;;;13.60;99.90;;;;;;5116478;28;20409;-74
2022/05/10 00:09:57;;;;;;;7.50;3.20;;;13.60;99.90;;;;;;5115877;28;19924;-74
2022/05/10 00:12:23;;;;;;;12.00;3.40;;;13.50;99.90;;;;;;5115816;28;20046;-75
2022/05/10 00:14:48;;;;;;;8.27;3.47;;;13.50;99.90;;;;;;5115829;28;20043;-74
2022/05/10 00:17:25;;;;;;;6.23;3.77;;;13.50;99.90;;;;;;5115586;28;20122;-74
2022/05/10 00:19:51;;;;;;;12.18;3.50;;;13.50;99.90;;;;;;5115729;27;20046;-75
2022/05/10 00:22:17;;;;;;;7.77;3.17;;;13.50;99.90;;;;;;5115666;28;20093;-76
2022/05/10 00:24:42;;;;;;;8.80;3.37;;;13.40;99.90;;;;;;5115376;28;20044;-76
2022/05/10 00:27:08;;;;;;;9.07;3.40;;;13.40;99.90;;;;;;5115477;28;20043;-76
2022/05/10 00:29:33;;;;;;;7.37;3.60;;;13.40;99.90;;;;;;5115500;28;20047;-76
2022/05/10 00:31:59;;;;;;;6.50;3.00;;;13.40;99.90;;;;;;5115574;28;20044;-75
2022/05/10 00:34:28;;;;;;;8.07;3.93;;;13.40;99.90;;;;;;5114344;28;20043;-74
2022/05/10 00:36:54;;;;;;;6.65;3.65;;;13.30;99.90;;;;;;5115087;28;20503;-74
2022/05/10 00:39:20;;;;;;;7.10;3.40;;;13.30;99.90;;;;;;5115447;28;20065;-74
2022/05/10 00:41:53;;;;;;;8.73;3.42;;;13.30;99.90;;;;;;5115252;28;20055;-74
2022/05/10 00:44:42;;;;;;;8.65;3.85;;;13.30;99.90;;;;;;5116706;28;20043;-74
2022/05/10 00:47:25;;;;;;;8.75;4.00;;;13.20;99.90;;;;;;5116798;28;20047;-75
2022/05/10 00:50:20;;;;;;;9.68;4.40;;;13.30;99.90;;;;;;5117255;28;20082;-75
2022/05/10 00:53:11;;;;;;;11.40;4.70;;;13.30;99.90;;;;;;5117669;28;20067;-75
2022/05/10 00:55:43;;;;;;;19.83;4.82;;;13.30;99.90;;;;;;5115807;28;20049;-75
2022/05/10 00:58:34;;;;;;;12.68;5.68;;;13.30;99.90;;;;;;5116675;28;20054;-75
2022/05/10 01:01:01;;;;;;;9.98;4.90;;;13.30;99.90;;;;;;5117115;28;20078;-75
2022/05/10 01:03:39;;;;;;;10.50;5.70;;;13.30;99.90;;;;;;5116809;28;20051;-75
2022/05/10 01:06:25;;;;;;;9.23;5.78;;;13.40;99.90;;;;;;5116394;28;20399;-75
2022/05/10 01:09:21;;;;;;;9.55;5.90;;;13.40;99.90;;;;;;5116186;28;20132;-72
2022/05/10 01:12:08;;;;;;;10.93;5.53;;;13.50;99.90;;;;;;5120178;28;20043;-73
2022/05/10 01:14:48;;;;;;;13.73;6.25;;;13.50;99.90;;;;;;5120436;28;20052;-73
2022/05/10 01:17:14;;;;;;;9.73;6.25;;;13.50;99.90;;;;;;5116617;28;20062;-76
2022/05/10 01:19:42;;;;;;;10.97;6.20;;;13.50;99.90;;;;;;5114892;28;20047;-75
2022/05/10 01:22:53;;;;;;;13.88;7.55;;;13.60;99.90;;;;;;5114732;28;20046;-75
2022/05/10 01:25:47;;;;;;;13.95;6.35;;;13.50;99.90;;;;;;5114481;28;20044;-75
2022/05/10 01:28:15;;;;;;;14.18;6.65;;;13.60;99.90;;;;;;5114566;28;20047;-75
2022/05/10 01:30:41;;;;;;;11.55;6.60;;;13.60;99.90;;;;;;5114289;28;20567;-75
2022/05/10 01:33:30;;;;;;;15.15;7.03;;;13.60;99.90;;;;;;5114559;28;20081;-75
2022/05/10 01:36:20;;;;;;;13.90;6.57;;;13.50;99.90;;;;;;5114495;28;20092;-75
2022/05/10 01:38:55;;;;;;;16.95;6.90;;;13.60;99.90;;;;;;5114924;28;20046;-75
2022/05/10 01:41:33;;;;;;;12.43;7.10;;;13.60;99.90;;;;;;5114403;28;20047;-75
2022/05/10 01:44:19;;;;;;;11.63;6.97;;;13.60;99.90;;;;;;5114656;28;20043;-75
2022/05/10 01:46:47;;;;;;;11.57;7.32;;;13.60;99.90;;;;;;5114090;28;20039;-75
2022/05/10 01:49:34;;;;;;;14.38;7.22;;;13.50;99.90;;;;;;5114164;28;20442;-75
2022/05/10 01:52:13;;;;;;;13.05;7.22;;;13.50;99.90;;;;;;5114321;28;20130;-75
2022/05/10 01:54:41;;;;;;;12.52;7.55;;;13.50;99.90;;;;;;5114084;28;20101;-75
2022/05/10 01:57:15;;;;;;;10.73;6.90;;;13.40;99.90;;;;;;5114041;28;20040;-75
2022/05/10 01:59:48;;;;;;;11.48;6.90;;;13.50;99.90;;;;;;5114226;28;20380;-76
2022/05/10 02:02:18;;;;;;;18.20;7.85;;;13.40;99.90;;;;;;5114335;28;20075;-75
2022/05/10 02:04:47;;;;;;;13.15;7.38;;;13.40;99.90;;;;;;5113677;28;20090;-76
2022/05/10 02:07:19;;;;;;;13.73;7.38;;;13.40;99.90;;;;;;5113808;28;20055;-76
2022/05/10 02:10:08;;;;;;;14.73;8.07;;;13.40;99.90;;;;;;5114268;28;20052;-76
2022/05/10 02:12:48;;;;;;;13.65;8.20;;;13.30;99.90;;;;;;5113744;28;20043;-76
2022/05/10 02:15:23;;;;;;;12.43;7.60;;;13.30;99.90;;;;;;5113665;28;20031;-76
2022/05/10 02:18:07;;;;;;;13.20;8.25;;;13.30;99.90;;;;;;5114152;28;20051;-75
2022/05/10 02:20:48;;;;;;;11.75;8.18;;;13.30;99.90;;;;;;5113888;28;20069;-76
2022/05/10 02:23:23;;;;;;;14.80;8.38;;;13.30;99.90;;;;;;5113945;28;20042;-76
2022/05/10 02:26:00;;;;;;;14.63;8.57;;;13.30;99.90;;;;;;5113879;28;20479;-75
2022/05/10 02:28:38;;;;;;;14.05;8.57;;;13.30;99.90;;;;;;5113807;28;20130;-75
2022/05/10 02:31:14;;;;;;;13.55;8.38;;;13.30;99.90;;;;;;5113815;28;20044;-75
2022/05/10 02:33:42;;;;;;;13.68;9.13;;;13.30;99.90;;;;;;5113674;28;20036;-75
2022/05/10 02:36:08;;;;;;;12.32;8.30;;;13.30;99.90;;;;;;5113382;28;20044;-75
2022/05/10 02:38:37;;;;;;;11.30;8.60;;;13.30;99.90;;;;;;5113621;28;20040;-75
2022/05/10 02:41:08;;;;;;;14.95;9.13;;;13.30;99.90;;;;;;5113728;28;20372;-75
2022/05/10 02:43:41;;;;;;;13.00;8.35;;;13.30;99.90;;;;;;5113802;28;20085;-75
2022/05/10 02:46:07;;;;;;;12.18;8.48;;;13.30;99.90;;;;;;5113645;28;20488;-75
2022/05/10 02:48:36;;;;;;;13.50;9.47;;;13.30;99.90;;;;;;5113792;28;20105;-75
2022/05/10 02:51:03;;;;;;;14.75;8.75;;;13.30;99.90;;;;;;5113393;28;20089;-75
2022/05/10 02:53:28;;;;;;;24.15;9.57;;;13.30;99.90;;;;;;5113650;28;20039;-75
2022/05/10 02:56:01;;;;;;;12.85;8.90;;;13.30;99.90;;;;;;5113550;28;20468;-75
2022/05/10 02:58:37;;;;;;;14.98;9.63;;;13.30;99.90;;;;;;5115846;28;20054;-74
2022/05/10 03:01:25;;;;;;;13.70;9.32;;;13.30;99.90;;;;;;5117410;28;20063;-74
2022/05/10 03:03:51;;;;;;;15.93;9.53;;;13.30;99.90;;;;;;5117488;28;20047;-74
2022/05/10 03:06:19;;;;;;;13.23;8.93;;;13.30;99.90;;;;;;5116964;28;20043;-75
2022/05/10 03:08:49;;;;;;;15.43;9.18;;;13.30;99.90;;;;;;5117216;28;20039;-75
2022/05/10 03:11:15;;;;;;;16.67;9.70;;;13.30;99.90;;;;;;5117249;28;20131;-75
2022/05/10 03:13:42;;;;;;;20.77;10.40;;;13.30;99.90;;;;;;5117144;28;20489;-75
2022/05/10 03:16:08;;;;;;;16.17;9.65;;;13.30;99.90;;;;;;5116987;27;20491;-75
2022/05/10 03:18:34;;;;;;;21.40;10.60;;;13.30;99.90;;;;;;5117599;28;20039;-75
2022/05/10 03:21:00;;;;;;;18.80;9.65;;;13.30;99.90;;;;;;5117021;28;20368;-74
2022/05/10 03:23:27;;;;;;;14.30;9.57;;;13.30;99.90;;;;;;5117010;28;20046;-75
2022/05/10 03:25:56;;;;;;;15.95;10.70;;;13.30;99.90;;;;;;5117033;28;20520;-75
2022/05/10 03:28:23;;;;;;;18.83;11.02;;;13.30;99.90;;;;;;5116680;28;20046;-74
2022/05/10 03:30:49;;;;;;;17.02;11.05;;;13.30;99.90;;;;;;5116823;28;20122;-75
2022/05/10 03:33:15;;;;;;;18.90;11.13;;;13.30;99.90;;;;;;5116752;27;20125;-75
2022/05/10 03:35:41;;;;;;;19.05;12.10;;;13.40;99.90;;;;;;5116472;28;20040;-74
2022/05/10 03:38:07;;;;;;;17.13;10.53;;;13.40;99.90;;;;;;5116659;28;20541;-74
2022/05/10 03:40:32;;;;;;;22.80;12.02;;;13.40;99.90;;;;;;5116697;28;20052;-75
2022/05/10 03:42:58;;;;;;;16.77;10.37;;;13.40;99.90;;;;;;5116516;28;20471;-75
2022/05/10 03:45:24;;;;;;;23.60;11.38;;;13.40;99.90;;;;;;5116450;28;20097;-74
2022/05/10 03:47:51;;;;;;;16.60;11.50;;;13.40;99.90;;;;;;5116539;28;20047;-74
2022/05/10 03:50:20;;;;;;;18.08;11.15;;;13.40;99.90;;;;;;5116370;28;20089;-75
2022/05/10 03:52:46;;;;;;;16.23;10.85;;;13.40;99.90;;;;;;5116215;28;20097;-75
2022/05/10 03:55:15;;;;;;;19.07;12.10;;;13.40;99.90;;;;;;5116195;28;20063;-75
2022/05/10 03:57:41;;;;;;;21.65;11.35;;;13.40;99.90;;;;;;5116283;28;20053;-75
2022/05/10 04:00:12;;;;;;;17.87;10.97;;;13.40;99.90;;;;;;5116396;28;20122;-75
2022/05/10 04:02:38;;;;;;;16.77;11.10;;;13.40;99.90;;;;;;5116218;28;20090;-75
2022/05/10 04:05:05;;;;;;;17.73;12.50;;;13.40;99.90;;;;;;5116043;28;20444;-75
2022/05/10 04:07:30;;;;;;;;;;;13.40;99.90;;;;;;5116324;28;20090;-74
2022/05/10 04:09:56;;;;;;;20.63;12.35;;;13.40;99.90;;;;;;5116088;28;19971;-75
2022/05/10 04:12:21;;;;;;;22.97;12.47;;;13.40;99.90;;;;;;5115656;28;20047;-74
2022/05/10 04:14:47;;;;;;;21.08;12.32;;;13.40;99.90;;;;;;5115908;28;20391;-76
2022/05/10 04:17:12;;;;;;;18.88;12.45;;;13.40;99.90;;;;;;5114599;28;20526;-75
2022/05/10 04:19:38;;;;;;;17.20;12.20;;;13.40;99.90;;;;;;5131712;27;20045;-74
2022/05/10 04:22:04;;;;;;;17.73;12.30;;;13.40;99.90;;;;;;5115665;28;20514;-75
2022/05/10 04:24:30;;;;;;;18.57;12.60;;;13.40;99.90;;;;;;5115903;28;20051;-75
2022/05/10 04:26:55;;;;;;;17.77;12.35;;;13.50;99.90;;;;;;5115586;28;20048;-74
2022/05/10 04:29:21;;;;;;;20.38;13.02;;;13.50;99.90;;;;;;5115649;28;20062;-74
2022/05/10 04:31:46;;;;;;;19.55;12.32;;;13.50;99.90;;;;;;5115683;28;20159;-74
2022/05/10 04:34:12;;;;;;;22.77;12.73;;;13.50;99.90;;;;;;5115306;28;20043;-75
2022/05/10 04:36:38;;;;;;;21.17;13.38;;;13.60;99.90;;;;;;5115463;28;20069;-74
2022/05/10 04:39:04;;;;;;;22.85;12.73;;;13.60;99.90;;;;;;5115452;28;20082;-74
2022/05/10 04:41:33;;;;;;;24.27;12.80;;;13.70;99.90;;;;;;5115376;28;20074;-74
2022/05/10 04:44:02;;;;;;;21.63;12.85;;;13.70;99.90;;;;;;5115369;28;20096;-75
2022/05/10 04:46:30;;;;;;;24.92;12.85;;;13.70;99.90;;;;;;5115248;28;20452;-74
2022/05/10 04:48:56;;;;;;;16.90;12.05;;;13.80;99.90;;;;;;5115188;28;20079;-74
2022/05/10 04:51:22;;;;;;;21.38;12.35;;;13.80;99.90;;;;;;5115299;27;20043;-74
2022/05/10 04:53:48;;;;;;;19.10;12.97;;;13.80;99.90;;;;;;5115128;28;20036;-75
2022/05/10 04:56:14;;;;;;;20.27;12.80;;;13.90;99.90;;;;;;5114661;28;20080;-74
2022/05/10 04:58:39;;;;;;;26.42;13.82;;;13.90;99.90;;;;;;5115146;28;20499;-74
2022/05/10 05:01:07;;;;;;;18.47;12.53;;;14.00;99.90;;;;;;5115186;28;20047;-74
2022/05/10 05:03:33;;;;;;;22.98;13.48;;;14.10;99.90;;;;;;5114649;28;20040;-74
2022/05/10 05:05:59;;;;;;;19.90;13.30;;;14.10;99.90;;;;;;5114618;28;20040;-75
2022/05/10 05:08:25;;;;;;;26.83;12.97;;;14.20;99.90;;;;;;5114969;28;20039;-74
2022/05/10 05:10:52;;;;;;;22.27;13.80;;;14.20;99.90;;;;;;5114854;28;20124;-75
2022/05/10 05:13:18;;;;;;;22.38;13.30;;;14.30;99.90;;;;;;5114881;28;20376;-75
2022/05/10 05:15:44;;;;;;;24.13;13.03;;;14.40;99.90;;;;;;5114285;28;20059;-75
2022/05/10 05:18:09;;;;;;;22.80;13.55;;;14.50;99.90;;;;;;5114651;28;20036;-76
2022/05/10 05:20:38;;;;;;;21.53;13.73;;;14.50;99.90;;;;;;5114122;28;20051;-76
2022/05/10 05:23:08;;;;;;;17.13;13.10;;;14.60;99.90;;;;;;5114403;28;20079;-74
2022/05/10 05:25:35;;;;;;;21.83;13.40;;;14.70;99.90;;;;;;5114483;28;20113;-74
2022/05/10 05:28:01;;;;;;;21.85;13.48;;;14.70;99.90;;;;;;5114569;28;20047;-77
2022/05/10 05:30:27;;;;;;;20.33;12.93;;;14.80;99.90;;;;;;5114319;28;20066;-75
2022/05/10 05:32:52;;;;;;;18.67;12.80;;;14.80;99.90;;;;;;5114455;28;20054;-75
2022/05/10 05:35:18;;;;;;;19.27;12.45;;;14.90;99.90;;;;;;5114426;28;20130;-75
2022/05/10 05:37:43;;;;;;;21.47;12.67;;;15.00;99.90;;;;;;5114243;28;20051;-75
2022/05/10 05:40:12;;;;;;;22.43;12.67;;;15.00;99.90;;;;;;5113933;28;20046;-75
2022/05/10 05:42:38;;;;;;;19.90;12.45;;;15.10;99.90;;;;;;5114400;28;20089;-80
2022/05/10 05:45:05;;;;;;;19.63;12.77;;;15.10;99.90;;;;;;5114049;28;20511;-75
2022/05/10 05:47:31;;;;;;;19.35;11.80;;;15.20;99.90;;;;;;5114289;28;20134;-77
2022/05/10 05:49:57;;;;;;;18.67;12.70;;;15.30;99.90;;;;;;5114134;28;20517;-77
2022/05/10 05:52:23;;;;;;;20.97;11.20;;;15.30;99.90;;;;;;5114143;28;20047;-76
2022/05/10 05:54:53;;;;;;;18.13;11.30;;;15.30;99.90;;;;;;5113612;28;20479;-77
2022/05/10 05:57:20;;;;;;;18.10;11.45;;;15.40;99.90;;;;;;5113614;28;20483;-77
2022/05/10 05:59:46;;;;;;;19.15;11.85;;;15.50;99.90;;;;;;5113938;28;20081;-77
2022/05/10 06:02:17;;;;;;;20.23;11.73;;;15.50;99.90;;;;;;5113994;28;20047;-77
2022/05/10 06:04:43;;;;;;;21.13;11.80;;;15.60;99.90;;;;;;5113994;28;20429;-77
2022/05/10 06:07:13;;;;;;;19.27;12.87;;;15.70;99.90;;;;;;5113965;28;20042;-77
2022/05/10 06:09:43;;;;;;;19.20;12.68;;;15.70;99.90;;;;;;5113926;28;20048;-81
2022/05/10 06:12:11;;;;;;;17.77;12.45;;;15.80;99.90;;;;;;5114160;28;20047;-76
2022/05/10 06:14:37;;;;;;;19.63;12.45;;;15.90;99.90;;;;;;5113601;28;20078;-77
2022/05/10 06:17:03;;;;;;;21.17;12.18;;;16.00;99.90;;;;;;5114005;28;20052;-76
2022/05/10 06:19:30;;;;;;;21.70;12.05;;;16.00;99.90;;;;;;5113818;28;20050;-76
2022/05/10 06:21:55;;;;;;;18.33;12.05;;;16.10;99.90;;;;;;5113703;28;20048;-76
2022/05/10 06:24:22;;;;;;;18.57;11.50;;;16.20;99.90;;;;;;5114087;28;20051;-76
2022/05/10 06:26:47;;;;;;;20.30;12.88;;;16.30;99.90;;;;;;5113552;28;20044;-76
2022/05/10 06:29:13;;;;;;;20.67;12.33;;;16.30;99.90;;;;;;5113726;28;20131;-78
2022/05/10 06:31:41;;;;;;;19.03;10.93;;;16.40;99.90;;;;;;5113745;28;20062;-78
2022/05/10 06:34:07;;;;;;;22.27;12.63;;;16.50;99.90;;;;;;5117426;28;20092;-78
2022/05/10 06:36:32;;;;;;;17.53;12.47;;;16.60;99.90;;;;;;5117458;28;20503;-76
2022/05/10 06:38:58;;;;;;;22.67;12.47;;;16.70;99.90;;;;;;5118056;28;20043;-78
2022/05/10 06:41:24;;;;;;;20.60;11.50;;;16.80;99.90;;;;;;5117801;28;20044;-77
2022/05/10 06:43:50;;;;;;;19.30;11.87;;;17.00;99.90;;;;;;5117555;28;20085;-77
2022/05/10 06:46:20;;;;;;;17.98;11.35;;;17.20;99.90;;;;;;5117541;28;20035;-76
2022/05/10 06:48:46;;;;;;;17.98;11.45;;;17.30;99.90;;;;;;5117622;28;20043;-78
2022/05/10 06:51:13;;;;;;;18.73;11.70;;;17.50;99.90;;;;;;5117176;28;20126;-76
2022/05/10 06:53:40;;;;;;;13.98;10.88;;;17.70;99.90;;;;;;5117439;28;20047;-77
2022/05/10 06:56:06;;;;;;;19.83;11.85;;;17.90;99.90;;;;;;5117409;28;20075;-78
2022/05/10 06:58:33;;;;;;;19.27;11.52;;;18.10;99.90;;;;;;5117330;28;20475;-78
2022/05/10 07:00:58;;;;;;;;;;;18.30;99.90;;;;;;5117828;28;20048;-78
2022/05/10 07:03:28;;;;;;;16.80;10.35;;;18.40;99.90;;;;;;5117380;28;19920;-77
2022/05/10 07:05:54;;;;;;;21.13;10.85;;;18.50;99.90;;;;;;5116780;28;20111;-78
2022/05/10 07:08:20;;;;;;;18.70;9.85;;;18.50;99.90;;;;;;5117340;28;20044;-78
2022/05/10 07:10:46;;;;;;;18.70;10.63;;;18.60;99.90;;;;;;5117182;28;20035;-79
2022/05/10 07:13:20;;;;;;;14.97;10.20;;;18.60;99.90;;;;;;5117041;28;20043;-77
2022/05/10 07:15:46;;;;;;;14.75;10.55;;;18.60;99.90;;;;;;5116711;28;20063;-77
2022/05/10 07:18:13;;;;;;;15.37;9.80;;;18.60;99.90;;;;;;5116826;28;20092;-81
2022/05/10 07:20:39;;;;;;;17.63;10.15;;;18.60;99.90;;;;;;5116959;28;20281;-78
2022/05/10 07:23:06;;;;;;;14.95;9.75;;;18.60;99.90;;;;;;5116909;27;20048;-79
2022/05/10 07:25:32;;;;;;;16.73;10.02;;;18.70;99.90;;;;;;5116882;28;20036;-79
2022/05/10 07:27:58;;;;;;;19.00;10.87;;;18.80;99.90;;;;;;5115578;28;20043;-80
2022/05/10 07:30:26;;;;;;;16.77;9.40;;;18.90;99.90;;;;;;5116010;28;20052;-79
2022/05/10 07:32:53;;;;;;;14.93;8.45;;;19.30;99.90;;;;;;5115705;28;20054;-78
2022/05/10 07:38:10;;;;;;;14.38;8.73;;;19.50;99.90;;;;;;5086761;28;20399;-78
2022/05/10 07:40:37;;;;;;;14.32;8.05;;;19.70;99.90;;;;;;5116536;28;20047;-77
2022/05/10 07:43:02;;;;;;;15.15;8.57;;;20.00;99.90;;;;;;5097669;28;20043;-77
2022/05/10 07:45:28;;;;;;;18.87;9.00;;;20.20;99.90;;;;;;5114993;28;20383;-77
2022/05/10 07:47:54;;;;;;;15.70;8.30;;;20.30;99.90;;;;;;5116482;28;20043;-78
2022/05/10 07:50:20;;;;;;;18.33;8.40;;;20.50;99.90;;;;;;5116540;28;20046;-77
2022/05/10 07:52:45;;;;;;;18.37;7.43;;;20.70;99.90;;;;;;5116334;28;20138;-76
2022/05/10 07:55:13;;;;;;;16.10;7.63;;;20.90;99.90;;;;;;5116012;28;20122;-76
2022/05/10 07:57:40;;;;;;;18.13;8.43;;;21.10;99.90;;;;;;5115917;28;20043;-77
2022/05/10 08:00:08;;;;;;;17.65;8.05;;;21.30;99.90;;;;;;5115879;28;20368;-80
2022/05/10 08:02:35;;;;;;;15.10;7.25;;;21.50;99.90;;;;;;5115969;28;20087;-76
2022/05/10 08:05:02;;;;;;;14.88;6.90;;;21.50;99.90;;;;;;5115568;28;20558;-77
2022/05/10 08:07:28;;;;;;;12.25;7.30;;;21.60;99.90;;;;;;5115907;28;20094;-76
2022/05/10 08:09:54;;;;;;;18.30;6.73;;;21.80;99.90;;;;;;5115709;28;20079;-75
2022/05/10 08:12:20;;;;;;;;;;;22.00;99.90;;;;;;5116258;28;20047;-77
2022/05/10 08:14:46;;;;;;;12.45;5.57;;;22.20;99.90;;;;;;5115262;28;19945;-75
2022/05/10 08:17:11;;;;;;;11.10;6.90;;;22.40;99.90;;;;;;5115627;28;20052;-73
2022/05/10 08:19:37;;;;;;;15.83;6.17;;;22.60;98.80;;;;;;5115665;28;20051;-76
2022/05/10 08:22:02;;;;;;;11.33;5.40;;;22.60;98.00;;;;;;5115563;28;20126;-74
2022/05/10 08:24:28;;;;;;;13.67;5.77;;;22.70;97.90;;;;;;5115138;28;20044;-73
2022/05/10 08:26:53;;;;;;;13.57;6.10;;;22.90;98.30;;;;;;5115684;28;20365;-75
2022/05/10 08:29:19;;;;;;;12.03;6.00;;;23.00;97.50;;;;;;5115407;28;20108;-75
2022/05/10 08:31:45;;;;;;;9.50;5.60;;;23.00;97.30;;;;;;5115464;28;20040;-74
2022/05/10 08:34:10;;;;;;;14.93;6.20;;;23.00;97.20;;;;;;5115289;28;20039;-75
2022/05/10 08:36:36;;;;;;;14.83;6.07;;;22.90;97.20;;;;;;5115090;28;20087;-76
2022/05/10 08:39:02;;;;;;;13.00;6.30;;;22.90;97.30;;;;;;5114920;28;20075;-76
2022/05/10 08:41:35;;;;;;;10.93;6.27;;;22.80;97.40;;;;;;5115283;28;20047;-76
2022/05/10 08:44:10;;;;;;;12.10;5.38;;;22.80;97.70;;;;;;5115138;28;20048;-75
2022/05/10 08:46:38;;;;;;;10.82;5.38;;;22.90;97.30;;;;;;5113864;28;20398;-74
2022/05/10 08:49:15;;;;;;;11.90;6.03;;;22.90;96.20;;;;;;5115054;28;20055;-74
2022/05/10 08:51:40;;;;;;;7.80;5.00;;;22.70;96.00;;;;;;5115153;28;20047;-74
2022/05/10 08:54:07;;;;;;;10.23;4.83;;;22.70;96.60;;;;;;5114830;28;20048;-76
2022/05/10 08:56:43;;;;;;;10.20;4.53;;;22.70;96.60;;;;;;5114050;28;20403;-75
2022/05/10 08:59:30;;;;;;;10.55;5.40;;;22.70;96.70;;;;;;5114920;28;20074;-75
2022/05/10 09:02:17;;;;;;;11.48;5.07;;;22.70;96.30;;;;;;5114874;28;20612;-76
2022/05/10 09:05:19;;;;;;;9.95;4.38;;;22.70;96.50;;;;;;5114547;28;20479;-79
2022/05/10 09:08:08;;;;;;;9.52;4.50;;;22.80;95.70;;;;;;5112647;28;20060;-76
2022/05/10 09:10:43;;;;;;;11.60;4.90;;;23.00;96.10;;;;;;5114603;28;20040;-75
2022/05/10 09:13:16;;;;;;;13.38;4.25;;;23.00;95.80;;;;;;5114703;28;20501;-74
2022/05/10 09:15:47;;;;;;;8.82;4.80;;;23.00;95.90;;;;;;5114203;28;20060;-76
2022/05/10 09:18:22;;;;;;;8.05;4.88;;;23.20;96.30;;;;;;5114556;28;20059;-75
2022/05/10 09:21:14;;;;;;;12.23;4.80;;;23.40;96.20;;;;;;5114921;28;20051;-76
2022/05/10 09:24:17;;;;;;;10.27;5.10;;;23.70;96.10;;;;;;5113967;28;20483;-75
2022/05/10 09:26:48;;;;;;;7.78;4.80;;;23.90;95.60;;;;;;5114287;28;20089;-75
2022/05/10 09:29:32;;;;;;;10.32;4.93;;;24.00;95.00;;;;;;5114176;28;20097;-77
2022/05/10 09:34:58;;;;;;;8.43;4.75;;;24.50;94.90;;;;;;5114192;28;20130;-74
2022/05/10 09:37:34;;;;;;;9.40;5.05;;;24.80;95.00;;;;;;5114188;28;20035;-73
2022/05/10 09:40:12;;;;;;;10.63;4.65;;;24.90;94.30;;;;;;5114274;28;20054;-72
2022/05/10 09:42:43;;;;;;;9.05;4.80;;;24.80;94.30;;;;;;5114017;28;20043;-73
2022/05/10 09:45:17;;;;;;;15.95;5.03;;;24.80;94.10;;;;;;5114053;28;20079;-73
2022/05/10 09:48:09;;;;;;;9.35;3.90;;;24.80;94.60;;;;;;5114097;28;20146;-74
2022/05/10 09:50:40;;;;;;;6.05;4.00;;;24.80;94.00;;;;;;5114122;28;20109;-71
2022/05/10 09:53:12;;;;;;;9.80;4.63;;;24.60;94.40;;;;;;5113698;28;20048;-74
2022/05/10 09:55:39;;;;;;;9.32;4.28;;;24.50;93.80;;;;;;5113906;28;20044;-75
2022/05/10 09:58:20;;;;;;;13.73;4.38;;;24.20;94.80;;;;;;5113877;28;20043;-73
2022/05/10 10:00:56;;;;;;;8.30;4.03;;;24.00;95.20;;;;;;5113987;28;20054;-74
2022/05/10 10:03:33;;;;;;;9.45;4.32;;;24.00;95.30;;;;;;5113663;28;20075;-73
2022/05/10 10:06:13;;;;;;;;;;;24.00;95.60;;;;;;5113978;28;20043;-73
2022/05/10 10:08:44;;;;;;;7.50;4.43;;;23.80;95.30;;;;;;5114011;28;19996;-73
2022/05/10 10:11:24;;;;;;;9.30;4.63;;;23.90;95.60;;;;;;5113777;28;20391;-75
2022/05/10 10:13:56;;;;;;;9.65;4.25;;;23.90;95.40;;;;;;5113444;28;20453;-75
2022/05/10 10:16:28;;;;;;;7.72;4.85;;;24.00;95.70;;;;;;5113505;28;20152;-74
2022/05/10 10:18:59;;;;;;;10.30;4.68;;;24.10;95.70;;;;;;5113603;28;20058;-74
2022/05/10 10:21:32;;;;;;;6.63;4.28;;;24.10;96.10;;;;;;5113141;28;20090;-77
2022/05/10 10:23:59;;;;;;;8.60;4.55;;;24.10;95.80;;;;;;5113584;28;20043;-76
2022/05/10 10:26:48;;;;;;;11.32;4.82;;;24.20;95.60;;;;;;5113413;28;20483;-75
2022/05/10 10:29:31;;;;;;;6.45;4.63;;;24.10;95.60;;;;;;5113623;28;20043;-75
2022/05/10 10:32:04;;;;;;;8.25;4.57;;;24.10;95.80;;;;;;5113701;28;20054;-75
2022/05/10 10:34:41;;;;;;;9.38;4.72;;;24.10;95.30;;;;;;5113503;28;20040;-75
2022/05/10 10:37:12;;;;;;;15.00;4.35;;;24.20;96.20;;;;;;5112007;28;20051;-73
2022/05/10 10:40:06;;;;;;;8.88;3.92;;;24.20;94.60;;;;;;5113730;28;20039;-74
2022/05/10 10:43:03;;;;;;;9.07;3.72;;;24.20;95.30;;;;;;5112454;28;20087;-74
2022/05/10 10:45:48;;;;;;;7.80;4.05;;;24.20;94.10;;;;;;5113712;28;20048;-74
2022/05/10 10:48:38;;;;;;;10.93;4.35;;;24.20;94.40;;;;;;5113421;28;20048;-76
2022/05/10 10:51:03;;;;;;;11.30;4.20;;;24.30;94.50;;;;;;5113420;28;20047;-75
2022/05/10 10:53:29;;;;;;;8.47;3.80;;;24.20;93.60;;;;;;5113356;28;20062;-75
2022/05/10 10:56:21;;;;;;;11.68;3.83;;;24.30;93.80;;;;;;5113161;28;20040;-76
2022/05/10 10:59:34;;;;;;;7.38;4.00;;;24.40;94.00;;;;;;5112726;28;20094;-75
2022/05/10 11:02:24;;;;;;;7.28;3.53;;;24.60;94.70;;;;;;5112609;28;20055;-77
2022/05/10 11:05:30;;;;;;;15.90;4.00;;;24.80;94.40;;;;;;5111049;28;20050;-74
2022/05/10 11:08:23;;;;;;;7.30;4.22;;;24.70;93.80;;;;;;5113464;28;20323;-75
2022/05/10 11:11:13;;;;;;;9.70;4.50;;;24.70;93.60;;;;;;5113422;28;20043;-76
2022/05/10 11:14:07;;;;;;;8.30;3.90;;;24.60;93.80;;;;;;5113105;28;20108;-76
2022/05/10 11:17:00;;;;;;;10.05;3.55;;;24.80;94.10;;;;;;5112964;28;20097;-75
2022/05/10 11:20:04;;;;;;;8.32;3.67;;;24.90;93.30;;;;;;5115323;28;20060;-80
2022/05/10 11:22:40;;;;;;;7.78;3.72;;;25.10;93.60;;;;;;5116152;28;20047;-74
2022/05/10 11:25:46;;;;;;;19.87;4.73;;;25.30;93.00;;;;;;5116283;28;20047;-75
2022/05/10 11:28:23;;;;;;;6.97;3.88;;;25.20;93.20;;;;;;5116854;28;20113;-75
2022/05/10 11:30:56;;;;;;;;;;;25.30;92.90;;;;;;5116889;28;20130;-76
2022/05/10 11:33:56;;;;;;;7.78;3.70;;;25.30;92.80;;;;;;5116477;28;19919;-76
2022/05/10 11:36:52;;;;;;;11.13;3.95;;;25.40;92.50;;;;;;5107786;28;20514;-75
2022/05/10 11:39:36;;;;;;;13.93;4.50;;;25.30;92.20;;;;;;5103480;28;20071;-73
2022/05/10 11:42:32;;;;;;;8.68;4.50;;;25.30;91.90;;;;;;5116367;28;20051;-73
2022/05/10 11:45:35;;;;;;;10.88;3.80;;;25.30;91.80;;;;;;5116488;28;20047;-72
2022/05/10 11:48:06;;;;;;;11.63;3.92;;;25.30;91.20;;;;;;5098330;28;20428;-77
2022/05/10 11:53:59;;;;;;;13.43;4.47;;;25.10;92.20;;;;;;5101972;28;20488;-77
2022/05/10 11:56:33;;;;;;;9.73;4.43;;;25.10;92.40;;;;;;5116090;28;20051;-74
2022/05/10 11:59:03;;;;;;;12.77;4.50;;;24.90;92.10;;;;;;5116218;28;20043;-77
2022/05/10 12:01:48;;;;;;;11.00;4.30;;;24.90;92.20;;;;;;5116080;28;20049;-73
2022/05/10 12:04:33;;;;;;;7.90;4.47;;;25.00;92.40;;;;;;5115552;28;20458;-77
2022/05/10 12:07:22;;;;;;;10.15;4.00;;;24.90;92.70;;;;;;5116080;28;20502;-78
2022/05/10 12:09:57;;;;;;;12.02;4.15;;;24.90;92.90;;;;;;5116517;28;20440;-79
2022/05/10 12:12:31;;;;;;;429.13;30.42;;;24.80;92.70;;;;;;5114343;28;20094;-79
2022/05/10 12:21:20;;;;;;;9.57;3.30;;;25.30;92.00;;;;;;5115572;28;20134;-79
2022/05/10 12:24:04;;;;;;;246.02;14.18;;;25.60;91.70;;;;;;5116102;28;20046;-76
2022/05/10 12:26:37;;;;;;;10.80;3.20;;;25.80;92.30;;;;;;5116705;28;20179;-79
2022/05/10 12:29:07;;;;;;;10.88;4.18;;;25.90;90.90;;;;;;5116083;28;20050;-79
2022/05/10 12:31:32;;;;;;;13.13;4.00;;;25.80;90.10;;;;;;5115250;28;20043;-79
2022/05/10 12:34:06;;;;;;;11.67;3.57;;;25.60;90.00;;;;;;5115944;28;20047;-80
2022/05/10 12:36:38;;;;;;;10.27;3.30;;;25.50;90.30;;;;;;5115759;28;20039;-78
2022/05/10 12:39:26;;;;;;;10.50;3.38;;;25.60;90.50;;;;;;5115862;27;20372;-78
2022/05/10 12:42:00;;;;;;;8.95;3.60;;;25.60;90.90;;;;;;5115691;28;20444;-79
2022/05/10 12:44:44;;;;;;;8.43;3.47;;;25.70;90.10;;;;;;5114859;28;20043;-78
2022/05/10 12:47:24;;;;;;;8.80;3.50;;;25.80;90.30;;;;;;5115402;28;20518;-77
2022/05/10 12:50:15;;;;;;;7.68;3.80;;;25.80;90.40;;;;;;5115654;28;20498;-80
2022/05/10 12:52:48;;;;;;;11.52;4.00;;;25.80;90.20;;;;;;5115438;28;20050;-80
2022/05/10 12:55:21;;;;;;;9.20;3.78;;;25.70;90.00;;;;;;5115563;28;20483;-78
2022/05/10 12:58:00;;;;;;;14.40;4.10;;;25.50;90.00;;;;;;5115503;28;20123;-78
2022/05/10 13:00:33;;;;;;;8.00;3.28;;;25.30;90.20;;;;;;5115421;28;20507;-77
2022/05/10 13:03:07;;;;;;;8.48;3.50;;;25.30;90.70;;;;;;5115033;28;20043;-76
2022/05/10 13:05:58;;;;;;;8.45;3.60;;;25.20;91.10;;;;;;5114934;28;20134;-78
2022/05/10 13:08:57;;;;;;;10.27;3.80;;;25.10;90.70;;;;;;5115163;28;20094;-77
2022/05/10 13:11:27;;;;;;;10.35;3.60;;;25.10;91.10;;;;;;5115047;28;20047;-79
2022/05/10 13:13:55;;;;;;;8.02;3.60;;;25.10;91.20;;;;;;5115247;28;20044;-76
2022/05/10 13:16:21;;;;;;;11.77;3.50;;;25.10;90.90;;;;;;5114723;28;20051;-79
2022/05/10 13:18:53;;;;;;;6.70;3.70;;;25.20;91.40;;;;;;5115377;28;20043;-78
2022/05/10 13:21:28;;;;;;;7.45;3.90;;;25.20;90.90;;;;;;5114886;28;20106;-76